sensor_id;sensor_type;location;lat;lon;timestamp;temperature;humidity
26035;DHT22;13809;48.632;11.576;2023-09-30T00:02:41;21.60;34.00
26035;DHT22;13809;48.632;11.576;2023-09-30T00:07:46;21.50;34.10
26035;DHT22;13809;48.632;11.576;2023-09-30T00:12:49;21.40;34.50
26035;DHT22;13809;48.632;11.576;2023-09-30T00:17:53;21.30;34.40
26035;DHT22;13809;48.632;11.576;2023-09-30T00:22:57;21.20;34.70
26035;DHT22;13809;48.632;11.576;2023-09-30T00:28:00;21.10;35.20
26035;DHT22;13809;48.632;11.576;2023-09-30T00:33:04;21.00;35.10
26035;DHT22;13809;48.632;11.576;2023-09-30T00:38:08;20.90;35.40
26035;DHT22;13809;48.632;11.576;2023-09-30T00:43:18;20.80;35.60
26035;DHT22;13809;48.632;11.576;2023-09-30T00:48:21;20.80;36.10
26035;DHT22;13809;48.632;11.576;2023-09-30T00:53:26;20.80;35.40
26035;DHT22;13809;48.632;11.576;2023-09-30T00:58:30;20.80;36.00
26035;DHT22;13809;48.632;11.576;2023-09-30T01:03:33;20.80;35.60
26035;DHT22;13809;48.632;11.576;2023-09-30T01:08:39;20.80;35.70
26035;DHT22;13809;48.632;11.576;2023-09-30T01:13:43;20.70;36.10
26035;DHT22;13809;48.632;11.576;2023-09-30T01:18:49;20.60;35.90
26035;DHT22;13809;48.632;11.576;2023-09-30T01:23:53;20.50;36.30
26035;DHT22;13809;48.632;11.576;2023-09-30T01:28:57;20.30;36.80
26035;DHT22;13809;48.632;11.576;2023-09-30T01:34:00;20.30;36.80
26035;DHT22;13809;48.632;11.576;2023-09-30T01:39:05;20.20;36.70
26035;DHT22;13809;48.632;11.576;2023-09-30T01:44:09;20.20;36.70
26035;DHT22;13809;48.632;11.576;2023-09-30T01:49:12;20.20;36.70
26035;DHT22;13809;48.632;11.576;2023-09-30T01:54:17;20.10;36.60
26035;DHT22;13809;48.632;11.576;2023-09-30T01:59:20;20.10;37.00
26035;DHT22;13809;48.632;11.576;2023-09-30T02:04:24;20.00;36.50
26035;DHT22;13809;48.632;11.576;2023-09-30T02:09:28;19.90;36.80
26035;DHT22;13809;48.632;11.576;2023-09-30T02:14:32;19.90;37.70
26035;DHT22;13809;48.632;11.576;2023-09-30T02:19:35;19.80;37.30
26035;DHT22;13809;48.632;11.576;2023-09-30T02:24:40;19.80;37.40
26035;DHT22;13809;48.632;11.576;2023-09-30T02:29:43;19.70;37.90
26035;DHT22;13809;48.632;11.576;2023-09-30T02:34:46;19.70;37.60
26035;DHT22;13809;48.632;11.576;2023-09-30T02:39:51;19.70;37.70
26035;DHT22;13809;48.632;11.576;2023-09-30T02:44:54;19.60;38.10
26035;DHT22;13809;48.632;11.576;2023-09-30T02:49:57;19.60;37.90
26035;DHT22;13809;48.632;11.576;2023-09-30T02:55:03;19.60;38.00
26035;DHT22;13809;48.632;11.576;2023-09-30T03:00:08;19.60;38.60
26035;DHT22;13809;48.632;11.576;2023-09-30T03:05:23;19.50;38.30
26035;DHT22;13809;48.632;11.576;2023-09-30T03:10:27;19.50;38.20
26035;DHT22;13809;48.632;11.576;2023-09-30T03:15:31;19.50;38.80
26035;DHT22;13809;48.632;11.576;2023-09-30T03:20:34;19.50;38.40
26035;DHT22;13809;48.632;11.576;2023-09-30T03:25:39;19.50;38.50
26035;DHT22;13809;48.632;11.576;2023-09-30T03:30:44;19.50;38.90
26035;DHT22;13809;48.632;11.576;2023-09-30T03:35:48;19.50;38.50
26035;DHT22;13809;48.632;11.576;2023-09-30T03:40:52;19.50;38.60
26035;DHT22;13809;48.632;11.576;2023-09-30T03:45:56;19.60;39.00
26035;DHT22;13809;48.632;11.576;2023-09-30T03:51:08;19.60;38.50
26035;DHT22;13809;48.632;11.576;2023-09-30T03:56:12;19.60;39.50
26035;DHT22;13809;48.632;11.576;2023-09-30T04:01:16;19.60;38.90
26035;DHT22;13809;48.632;11.576;2023-09-30T04:06:21;19.50;38.60
26035;DHT22;13809;48.632;11.576;2023-09-30T04:11:26;19.40;38.90
26035;DHT22;13809;48.632;11.576;2023-09-30T04:16:29;19.30;39.20
26035;DHT22;13809;48.632;11.576;2023-09-30T04:21:32;19.30;38.90
26035;DHT22;13809;48.632;11.576;2023-09-30T04:26:37;19.20;38.90
26035;DHT22;13809;48.632;11.576;2023-09-30T04:31:42;19.10;39.40
26035;DHT22;13809;48.632;11.576;2023-09-30T04:36:46;19.10;39.10
26035;DHT22;13809;48.632;11.576;2023-09-30T04:41:51;19.10;39.20
26035;DHT22;13809;48.632;11.576;2023-09-30T04:46:56;19.00;39.60
26035;DHT22;13809;48.632;11.576;2023-09-30T04:52:00;19.00;39.20
26035;DHT22;13809;48.632;11.576;2023-09-30T04:57:04;18.90;39.30
26035;DHT22;13809;48.632;11.576;2023-09-30T05:02:08;18.90;39.70
26035;DHT22;13809;48.632;11.576;2023-09-30T05:07:12;18.90;39.40
26035;DHT22;13809;48.632;11.576;2023-09-30T05:12:17;18.90;39.50
26035;DHT22;13809;48.632;11.576;2023-09-30T05:17:20;18.90;39.90
26035;DHT22;13809;48.632;11.576;2023-09-30T05:22:24;18.90;39.70
26035;DHT22;13809;48.632;11.576;2023-09-30T05:27:28;19.00;39.60
26035;DHT22;13809;48.632;11.576;2023-09-30T05:32:31;19.10;40.20
26035;DHT22;13809;48.632;11.576;2023-09-30T05:37:35;19.10;39.70
26035;DHT22;13809;48.632;11.576;2023-09-30T05:42:40;19.10;40.00
26035;DHT22;13809;48.632;11.576;2023-09-30T05:47:44;19.10;40.40
26035;DHT22;13809;48.632;11.576;2023-09-30T05:52:51;19.00;40.10
26035;DHT22;13809;48.632;11.576;2023-09-30T05:57:56;19.00;40.30
26035;DHT22;13809;48.632;11.576;2023-09-30T06:03:01;19.00;40.90
26035;DHT22;13809;48.632;11.576;2023-09-30T06:08:07;19.10;40.50
26035;DHT22;13809;48.632;11.576;2023-09-30T06:13:13;19.10;40.60
26035;DHT22;13809;48.632;11.576;2023-09-30T06:18:17;19.10;40.90
26035;DHT22;13809;48.632;11.576;2023-09-30T06:23:20;19.20;40.70
26035;DHT22;13809;48.632;11.576;2023-09-30T06:28:25;19.30;40.70
26035;DHT22;13809;48.632;11.576;2023-09-30T06:33:30;19.30;41.10
26035;DHT22;13809;48.632;11.576;2023-09-30T06:38:33;19.40;40.70
26035;DHT22;13809;48.632;11.576;2023-09-30T06:43:37;19.40;40.60
26035;DHT22;13809;48.632;11.576;2023-09-30T06:48:40;19.50;41.10
26035;DHT22;13809;48.632;11.576;2023-09-30T06:53:44;19.50;40.90
26035;DHT22;13809;48.632;11.576;2023-09-30T06:58:49;19.60;40.90
26035;DHT22;13809;48.632;11.576;2023-09-30T07:03:52;19.70;41.30
26035;DHT22;13809;48.632;11.576;2023-09-30T07:08:56;19.70;40.90
26035;DHT22;13809;48.632;11.576;2023-09-30T07:14:01;19.80;40.80
26035;DHT22;13809;48.632;11.576;2023-09-30T07:19:04;19.90;41.20
26035;DHT22;13809;48.632;11.576;2023-09-30T07:24:08;19.80;40.60
26035;DHT22;13809;48.632;11.576;2023-09-30T07:29:12;19.80;40.70
26035;DHT22;13809;48.632;11.576;2023-09-30T07:34:16;19.80;41.10
26035;DHT22;13809;48.632;11.576;2023-09-30T07:39:19;19.80;41.00
26035;DHT22;13809;48.632;11.576;2023-09-30T07:44:23;19.80;41.10
26035;DHT22;13809;48.632;11.576;2023-09-30T07:49:26;19.80;41.40
26035;DHT22;13809;48.632;11.576;2023-09-30T07:54:30;19.80;41.10
26035;DHT22;13809;48.632;11.576;2023-09-30T07:59:34;19.80;41.20
26035;DHT22;13809;48.632;11.576;2023-09-30T08:04:37;19.80;41.50
26035;DHT22;13809;48.632;11.576;2023-09-30T08:09:41;19.90;41.30
26035;DHT22;13809;48.632;11.576;2023-09-30T08:14:45;19.80;41.30
26035;DHT22;13809;48.632;11.576;2023-09-30T08:19:49;19.90;42.00
26035;DHT22;13809;48.632;11.576;2023-09-30T08:24:52;20.00;41.70
26035;DHT22;13809;48.632;11.576;2023-09-30T08:29:57;20.10;41.60
26035;DHT22;13809;48.632;11.576;2023-09-30T08:35:01;20.10;41.70
26035;DHT22;13809;48.632;11.576;2023-09-30T08:40:06;20.30;41.60
26035;DHT22;13809;48.632;11.576;2023-09-30T08:45:15;20.40;41.50
26035;DHT22;13809;48.632;11.576;2023-09-30T08:50:21;20.40;41.30
26035;DHT22;13809;48.632;11.576;2023-09-30T08:55:26;20.50;41.20
26035;DHT22;13809;48.632;11.576;2023-09-30T09:00:31;20.70;41.20
26035;DHT22;13809;48.632;11.576;2023-09-30T09:05:35;20.70;40.80
26035;DHT22;13809;48.632;11.576;2023-09-30T09:10:53;20.80;40.80
26035;DHT22;13809;48.632;11.576;2023-09-30T09:16:08;21.00;40.80
26035;DHT22;13809;48.632;11.576;2023-09-30T09:21:13;21.10;40.40
26035;DHT22;13809;48.632;11.576;2023-09-30T09:26:25;21.20;40.20
26035;DHT22;13809;48.632;11.576;2023-09-30T09:31:32;21.20;40.00
26035;DHT22;13809;48.632;11.576;2023-09-30T09:36:41;21.40;40.10
26035;DHT22;13809;48.632;11.576;2023-09-30T09:41:51;21.60;39.90
26035;DHT22;13809;48.632;11.576;2023-09-30T09:46:58;21.70;39.80
26035;DHT22;13809;48.632;11.576;2023-09-30T09:52:02;21.90;38.20
26035;DHT22;13809;48.632;11.576;2023-09-30T09:57:09;22.00;38.50
26035;DHT22;13809;48.632;11.576;2023-09-30T10:02:15;22.00;38.90
26035;DHT22;13809;48.632;11.576;2023-09-30T10:07:22;22.20;38.50
26035;DHT22;13809;48.632;11.576;2023-09-30T10:12:26;22.30;38.50
26035;DHT22;13809;48.632;11.576;2023-09-30T10:17:58;22.40;38.60
26035;DHT22;13809;48.632;11.576;2023-09-30T10:23:21;22.50;38.30
26035;DHT22;13809;48.632;11.576;2023-09-30T10:28:39;22.70;37.30
26035;DHT22;13809;48.632;11.576;2023-09-30T10:39:54;22.90;38.40
26035;DHT22;13809;48.632;11.576;2023-09-30T10:44:58;23.00;37.00
26035;DHT22;13809;48.632;11.576;2023-09-30T10:50:01;23.20;37.60
26035;DHT22;13809;48.632;11.576;2023-09-30T10:55:08;23.20;37.10
26035;DHT22;13809;48.632;11.576;2023-09-30T11:00:12;23.30;36.10
26035;DHT22;13809;48.632;11.576;2023-09-30T11:05:18;23.40;36.00
26035;DHT22;13809;48.632;11.576;2023-09-30T11:10:48;23.50;36.00
26035;DHT22;13809;48.632;11.576;2023-09-30T11:16:00;23.50;34.70
26035;DHT22;13809;48.632;11.576;2023-09-30T11:21:07;23.50;33.80
26035;DHT22;13809;48.632;11.576;2023-09-30T11:26:11;23.50;34.30
26035;DHT22;13809;48.632;11.576;2023-09-30T11:31:15;23.50;34.00
26035;DHT22;13809;48.632;11.576;2023-09-30T11:36:20;23.40;34.10
26035;DHT22;13809;48.632;11.576;2023-09-30T11:41:34;23.30;34.30
26035;DHT22;13809;48.632;11.576;2023-09-30T11:46:57;23.30;32.90
26035;DHT22;13809;48.632;11.576;2023-09-30T11:52:03;23.40;32.90
26035;DHT22;13809;48.632;11.576;2023-09-30T11:57:12;23.40;33.30
26035;DHT22;13809;48.632;11.576;2023-09-30T12:02:17;23.50;32.60
26035;DHT22;13809;48.632;11.576;2023-09-30T12:07:20;23.50;33.40
26035;DHT22;13809;48.632;11.576;2023-09-30T12:12:25;23.50;33.00
26035;DHT22;13809;48.632;11.576;2023-09-30T12:17:28;23.60;31.90
26035;DHT22;13809;48.632;11.576;2023-09-30T12:22:32;23.60;32.30
26035;DHT22;13809;48.632;11.576;2023-09-30T12:27:36;23.70;32.50
26035;DHT22;13809;48.632;11.576;2023-09-30T12:32:41;23.70;30.90
26035;DHT22;13809;48.632;11.576;2023-09-30T12:37:45;23.70;31.80
26035;DHT22;13809;48.632;11.576;2023-09-30T12:42:49;23.70;31.60
26035;DHT22;13809;48.632;11.576;2023-09-30T12:47:53;23.80;31.50
26035;DHT22;13809;48.632;11.576;2023-09-30T12:52:58;23.80;31.30
26035;DHT22;13809;48.632;11.576;2023-09-30T12:58:03;23.80;31.30
26035;DHT22;13809;48.632;11.576;2023-09-30T13:03:07;23.70;30.70
26035;DHT22;13809;48.632;11.576;2023-09-30T13:08:10;23.80;31.20
26035;DHT22;13809;48.632;11.576;2023-09-30T13:13:14;23.70;31.20
26035;DHT22;13809;48.632;11.576;2023-09-30T13:18:18;23.70;30.40
26035;DHT22;13809;48.632;11.576;2023-09-30T13:23:21;23.70;30.80
26035;DHT22;13809;48.632;11.576;2023-09-30T13:28:26;23.80;31.00
26035;DHT22;13809;48.632;11.576;2023-09-30T13:33:30;23.80;30.30
26035;DHT22;13809;48.632;11.576;2023-09-30T13:38:34;23.80;30.80
26035;DHT22;13809;48.632;11.576;2023-09-30T13:43:38;23.90;31.00
26035;DHT22;13809;48.632;11.576;2023-09-30T13:48:42;23.90;29.90
26035;DHT22;13809;48.632;11.576;2023-09-30T13:53:45;23.90;29.80
26035;DHT22;13809;48.632;11.576;2023-09-30T13:58:49;23.90;29.90
26035;DHT22;13809;48.632;11.576;2023-09-30T14:03:55;23.80;29.90
26035;DHT22;13809;48.632;11.576;2023-09-30T14:09:00;23.80;29.90
26035;DHT22;13809;48.632;11.576;2023-09-30T14:14:06;23.80;30.00
26035;DHT22;13809;48.632;11.576;2023-09-30T14:19:11;23.80;29.80
26035;DHT22;13809;48.632;11.576;2023-09-30T14:24:15;23.90;30.00
26035;DHT22;13809;48.632;11.576;2023-09-30T14:29:20;23.80;29.90
26035;DHT22;13809;48.632;11.576;2023-09-30T14:34:23;23.80;29.50
26035;DHT22;13809;48.632;11.576;2023-09-30T14:39:27;23.80;29.80
26035;DHT22;13809;48.632;11.576;2023-09-30T14:44:32;23.80;29.70
26035;DHT22;13809;48.632;11.576;2023-09-30T14:49:35;23.80;29.40
26035;DHT22;13809;48.632;11.576;2023-09-30T14:54:38;23.70;29.70
26035;DHT22;13809;48.632;11.576;2023-09-30T14:59:43;23.70;29.70
26035;DHT22;13809;48.632;11.576;2023-09-30T15:04:46;23.70;29.60
26035;DHT22;13809;48.632;11.576;2023-09-30T15:09:49;23.70;30.00
26035;DHT22;13809;48.632;11.576;2023-09-30T15:14:55;23.80;30.00
26035;DHT22;13809;48.632;11.576;2023-09-30T15:19:59;23.80;29.80
26035;DHT22;13809;48.632;11.576;2023-09-30T15:25:02;23.80;30.00
26035;DHT22;13809;48.632;11.576;2023-09-30T15:30:09;23.80;30.00
26035;DHT22;13809;48.632;11.576;2023-09-30T15:35:12;23.80;29.80
26035;DHT22;13809;48.632;11.576;2023-09-30T15:40:15;23.80;30.00
26035;DHT22;13809;48.632;11.576;2023-09-30T15:45:21;23.80;30.00
26035;DHT22;13809;48.632;11.576;2023-09-30T15:50:25;23.80;29.70
26035;DHT22;13809;48.632;11.576;2023-09-30T15:55:28;23.80;30.00
26035;DHT22;13809;48.632;11.576;2023-09-30T16:00:35;23.80;30.20
26035;DHT22;13809;48.632;11.576;2023-09-30T16:05:40;23.70;29.90
26035;DHT22;13809;48.632;11.576;2023-09-30T16:10:44;23.70;30.10
26035;DHT22;13809;48.632;11.576;2023-09-30T16:15:48;23.60;29.90
26035;DHT22;13809;48.632;11.576;2023-09-30T16:20:52;23.60;29.80
26035;DHT22;13809;48.632;11.576;2023-09-30T16:25:55;23.50;30.10
26035;DHT22;13809;48.632;11.576;2023-09-30T16:31:00;23.40;30.40
26035;DHT22;13809;48.632;11.576;2023-09-30T16:36:05;23.30;30.60
26035;DHT22;13809;48.632;11.576;2023-09-30T16:41:08;23.30;30.70
26035;DHT22;13809;48.632;11.576;2023-09-30T16:46:13;23.20;30.90
26035;DHT22;13809;48.632;11.576;2023-09-30T16:51:17;23.10;31.00
26035;DHT22;13809;48.632;11.576;2023-09-30T16:56:21;23.00;31.00
26035;DHT22;13809;48.632;11.576;2023-09-30T17:01:26;22.90;31.00
26035;DHT22;13809;48.632;11.576;2023-09-30T17:06:29;22.80;31.20
26035;DHT22;13809;48.632;11.576;2023-09-30T17:11:32;22.60;31.10
26035;DHT22;13809;48.632;11.576;2023-09-30T17:16:37;22.60;31.40
26035;DHT22;13809;48.632;11.576;2023-09-30T17:21:40;22.50;31.70
26035;DHT22;13809;48.632;11.576;2023-09-30T17:26:43;22.40;31.60
26035;DHT22;13809;48.632;11.576;2023-09-30T17:31:49;22.40;31.70
26035;DHT22;13809;48.632;11.576;2023-09-30T17:36:52;22.30;31.90
26035;DHT22;13809;48.632;11.576;2023-09-30T17:41:55;22.20;31.70
26035;DHT22;13809;48.632;11.576;2023-09-30T17:47:00;22.10;31.70
26035;DHT22;13809;48.632;11.576;2023-09-30T17:52:04;22.00;31.80
26035;DHT22;13809;48.632;11.576;2023-09-30T17:57:08;21.90;31.60
26035;DHT22;13809;48.632;11.576;2023-09-30T18:02:13;21.80;31.70
26035;DHT22;13809;48.632;11.576;2023-09-30T18:07:17;21.60;31.80
26035;DHT22;13809;48.632;11.576;2023-09-30T18:12:20;21.50;31.90
26035;DHT22;13809;48.632;11.576;2023-09-30T18:17:25;21.30;31.90
26035;DHT22;13809;48.632;11.576;2023-09-30T18:22:28;21.30;32.20
26035;DHT22;13809;48.632;11.576;2023-09-30T18:27:31;21.20;32.10
26035;DHT22;13809;48.632;11.576;2023-09-30T18:32:36;21.10;32.00
26035;DHT22;13809;48.632;11.576;2023-09-30T18:37:39;21.00;32.10
26035;DHT22;13809;48.632;11.576;2023-09-30T18:42:42;20.80;32.20
26035;DHT22;13809;48.632;11.576;2023-09-30T18:47:47;20.60;32.40
26035;DHT22;13809;48.632;11.576;2023-09-30T18:52:52;20.50;32.70
26035;DHT22;13809;48.632;11.576;2023-09-30T18:57:57;20.50;32.50
26035;DHT22;13809;48.632;11.576;2023-09-30T19:03:03;20.40;32.50
26035;DHT22;13809;48.632;11.576;2023-09-30T19:08:09;20.10;32.70
26035;DHT22;13809;48.632;11.576;2023-09-30T19:13:13;19.90;32.80
26035;DHT22;13809;48.632;11.576;2023-09-30T19:18:17;19.70;33.00
26035;DHT22;13809;48.632;11.576;2023-09-30T19:23:21;19.50;33.30
26035;DHT22;13809;48.632;11.576;2023-09-30T19:28:24;19.30;33.30
26035;DHT22;13809;48.632;11.576;2023-09-30T19:33:30;19.10;33.50
26035;DHT22;13809;48.632;11.576;2023-09-30T19:38:34;19.10;33.90
26035;DHT22;13809;48.632;11.576;2023-09-30T19:43:37;19.10;33.80
26035;DHT22;13809;48.632;11.576;2023-09-30T19:48:41;19.10;33.80
26035;DHT22;13809;48.632;11.576;2023-09-30T19:53:45;19.10;33.90
26035;DHT22;13809;48.632;11.576;2023-09-30T19:58:48;19.00;33.60
26035;DHT22;13809;48.632;11.576;2023-09-30T20:03:52;18.80;33.80
26035;DHT22;13809;48.632;11.576;2023-09-30T20:08:56;18.70;34.30
26035;DHT22;13809;48.632;11.576;2023-09-30T20:14:00;18.70;34.30
26035;DHT22;13809;48.632;11.576;2023-09-30T20:19:05;18.70;34.30
26035;DHT22;13809;48.632;11.576;2023-09-30T20:24:09;18.70;34.50
26035;DHT22;13809;48.632;11.576;2023-09-30T20:29:12;18.70;34.10
26035;DHT22;13809;48.632;11.576;2023-09-30T20:34:16;18.60;34.10
26035;DHT22;13809;48.632;11.576;2023-09-30T20:39:20;18.40;34.40
26035;DHT22;13809;48.632;11.576;2023-09-30T20:44:23;18.30;34.20
26035;DHT22;13809;48.632;11.576;2023-09-30T20:49:28;18.20;34.60
26035;DHT22;13809;48.632;11.576;2023-09-30T20:54:31;18.20;34.90
26035;DHT22;13809;48.632;11.576;2023-09-30T20:59:34;18.10;34.80
26035;DHT22;13809;48.632;11.576;2023-09-30T21:04:39;18.00;34.70
26035;DHT22;13809;48.632;11.576;2023-09-30T21:09:43;17.80;34.70
26035;DHT22;13809;48.632;11.576;2023-09-30T21:14:47;17.70;34.50
26035;DHT22;13809;48.632;11.576;2023-09-30T21:19:52;17.50;35.10
26035;DHT22;13809;48.632;11.576;2023-09-30T21:24:56;17.50;35.60
26035;DHT22;13809;48.632;11.576;2023-09-30T21:29:59;17.40;35.70
26035;DHT22;13809;48.632;11.576;2023-09-30T21:35:05;17.50;35.70
26035;DHT22;13809;48.632;11.576;2023-09-30T21:40:09;17.40;36.20
26035;DHT22;13809;48.632;11.576;2023-09-30T21:45:14;17.40;36.00
26035;DHT22;13809;48.632;11.576;2023-09-30T21:50:19;17.30;35.90
26035;DHT22;13809;48.632;11.576;2023-09-30T21:55:22;17.30;36.30
26035;DHT22;13809;48.632;11.576;2023-09-30T22:00:25;17.10;36.00
26035;DHT22;13809;48.632;11.576;2023-09-30T22:05:40;16.90;36.30
26035;DHT22;13809;48.632;11.576;2023-09-30T22:10:44;16.90;36.90
26035;DHT22;13809;48.632;11.576;2023-09-30T22:15:48;16.90;36.70
26035;DHT22;13809;48.632;11.576;2023-09-30T22:20:52;16.80;36.70
26035;DHT22;13809;48.632;11.576;2023-09-30T22:25:57;16.90;37.40
26035;DHT22;13809;48.632;11.576;2023-09-30T22:31:01;16.90;36.80
26035;DHT22;13809;48.632;11.576;2023-09-30T22:36:06;16.90;36.70
26035;DHT22;13809;48.632;11.576;2023-09-30T22:41:09;16.90;37.10
26035;DHT22;13809;48.632;11.576;2023-09-30T22:46:12;16.80;36.70
26035;DHT22;13809;48.632;11.576;2023-09-30T22:51:17;16.80;36.90
26035;DHT22;13809;48.632;11.576;2023-09-30T22:56:20;16.70;37.30
26035;DHT22;13809;48.632;11.576;2023-09-30T23:01:25;16.80;37.10
26035;DHT22;13809;48.632;11.576;2023-09-30T23:06:30;16.80;37.10
26035;DHT22;13809;48.632;11.576;2023-09-30T23:11:34;16.70;37.30
26035;DHT22;13809;48.632;11.576;2023-09-30T23:16:38;16.50;37.00
26035;DHT22;13809;48.632;11.576;2023-09-30T23:21:43;16.50;37.00
26035;DHT22;13809;48.632;11.576;2023-09-30T23:26:47;16.50;37.70
26035;DHT22;13809;48.632;11.576;2023-09-30T23:31:51;16.40;37.20
26035;DHT22;13809;48.632;11.576;2023-09-30T23:36:55;16.40;37.30
26035;DHT22;13809;48.632;11.576;2023-09-30T23:42:02;16.30;37.60
26035;DHT22;13809;48.632;11.576;2023-09-30T23:47:06;16.30;37.40
26035;DHT22;13809;48.632;11.576;2023-09-30T23:52:11;16.30;37.40
26035;DHT22;13809;48.632;11.576;2023-09-30T23:57:15;16.40;37.70
